sensor_id;sensor_type;location;lat;lon;timestamp;P1;durP1;ratioP1;P2;durP2;ratioP2
23634;SDS011;11994;51.038;16.974;2023-04-01T00:01:54;6.40;;;3.90;;
23634;SDS011;11994;51.038;16.974;2023-04-01T00:04:19;6.90;;;3.90;;
23634;SDS011;11994;51.038;16.974;2023-04-01T00:06:45;6.80;;;4.20;;
23634;SDS011;11994;51.038;16.974;2023-04-01T00:09:12;6.00;;;3.80;;
23634;SDS011;11994;51.038;16.974;2023-04-01T00:11:38;6.60;;;4.40;;
23634;SDS011;11994;51.038;16.974;2023-04-01T00:14:03;10.40;;;4.60;;
23634;SDS011;11994;51.038;16.974;2023-04-01T00:16:30;6.80;;;4.90;;
23634;SDS011;11994;51.038;16.974;2023-04-01T00:18:55;11.50;;;5.10;;
23634;SDS011;11994;51.038;16.974;2023-04-01T00:21:21;9.50;;;5.00;;
23634;SDS011;11994;51.038;16.974;2023-04-01T00:23:47;6.30;;;4.70;;
23634;SDS011;11994;51.038;16.974;2023-04-01T00:26:14;7.30;;;5.10;;
23634;SDS011;11994;51.038;16.974;2023-04-01T00:28:42;8.40;;;5.50;;
23634;SDS011;11994;51.038;16.974;2023-04-01T00:31:08;8.80;;;5.40;;
23634;SDS011;11994;51.038;16.974;2023-04-01T00:33:35;8.40;;;4.90;;
23634;SDS011;11994;51.038;16.974;2023-04-01T00:36:13;9.50;;;4.90;;
23634;SDS011;11994;51.038;16.974;2023-04-01T00:38:41;8.90;;;5.10;;
23634;SDS011;11994;51.038;16.974;2023-04-01T00:41:07;7.90;;;5.60;;
23634;SDS011;11994;51.038;16.974;2023-04-01T00:43:34;9.70;;;5.60;;
23634;SDS011;11994;51.038;16.974;2023-04-01T00:46:00;9.20;;;5.50;;
23634;SDS011;11994;51.038;16.974;2023-04-01T00:48:36;7.20;;;5.00;;
23634;SDS011;11994;51.038;16.974;2023-04-01T00:53:30;9.90;;;4.60;;
23634;SDS011;11994;51.038;16.974;2023-04-01T00:56:20;9.10;;;5.30;;
23634;SDS011;11994;51.038;16.974;2023-04-01T00:58:54;7.20;;;4.90;;
23634;SDS011;11994;51.038;16.974;2023-04-01T01:01:24;7.80;;;5.50;;
23634;SDS011;11994;51.038;16.974;2023-04-01T01:03:50;7.00;;;5.30;;
23634;SDS011;11994;51.038;16.974;2023-04-01T01:12:00;6.10;;;4.90;;
23634;SDS011;11994;51.038;16.974;2023-04-01T01:16:58;7.70;;;5.50;;
23634;SDS011;11994;51.038;16.974;2023-04-01T01:25:00;7.30;;;4.40;;
23634;SDS011;11994;51.038;16.974;2023-04-01T01:28:02;5.80;;;4.10;;
23634;SDS011;11994;51.038;16.974;2023-04-01T01:30:35;6.40;;;4.50;;
23634;SDS011;11994;51.038;16.974;2023-04-01T01:36:08;8.20;;;3.70;;
23634;SDS011;11994;51.038;16.974;2023-04-01T01:38:38;6.20;;;3.70;;
23634;SDS011;11994;51.038;16.974;2023-04-01T01:41:05;4.80;;;3.30;;
23634;SDS011;11994;51.038;16.974;2023-04-01T01:43:35;5.80;;;4.00;;
23634;SDS011;11994;51.038;16.974;2023-04-01T01:46:06;7.50;;;4.00;;
23634;SDS011;11994;51.038;16.974;2023-04-01T01:48:36;6.20;;;3.60;;
23634;SDS011;11994;51.038;16.974;2023-04-01T01:51:03;6.40;;;4.10;;
23634;SDS011;11994;51.038;16.974;2023-04-01T01:53:30;4.60;;;2.80;;
23634;SDS011;11994;51.038;16.974;2023-04-01T01:55:55;4.90;;;3.00;;
23634;SDS011;11994;51.038;16.974;2023-04-01T01:58:28;7.40;;;3.00;;
23634;SDS011;11994;51.038;16.974;2023-04-01T02:01:10;6.90;;;2.80;;
23634;SDS011;11994;51.038;16.974;2023-04-01T02:03:40;5.90;;;3.30;;
23634;SDS011;11994;51.038;16.974;2023-04-01T02:06:08;5.50;;;2.70;;
23634;SDS011;11994;51.038;16.974;2023-04-01T02:11:30;3.90;;;2.30;;
23634;SDS011;11994;51.038;16.974;2023-04-01T02:14:05;4.40;;;2.60;;
23634;SDS011;11994;51.038;16.974;2023-04-01T02:16:36;5.30;;;3.00;;
23634;SDS011;11994;51.038;16.974;2023-04-01T02:19:05;4.90;;;2.90;;
23634;SDS011;11994;51.038;16.974;2023-04-01T02:21:34;6.00;;;2.70;;
23634;SDS011;11994;51.038;16.974;2023-04-01T02:24:02;4.80;;;2.80;;
23634;SDS011;11994;51.038;16.974;2023-04-01T02:26:30;5.20;;;2.70;;
23634;SDS011;11994;51.038;16.974;2023-04-01T02:28:56;5.10;;;2.90;;
23634;SDS011;11994;51.038;16.974;2023-04-01T02:31:24;5.10;;;2.90;;
23634;SDS011;11994;51.038;16.974;2023-04-01T02:33:50;5.50;;;2.70;;
23634;SDS011;11994;51.038;16.974;2023-04-01T02:36:16;6.80;;;2.60;;
23634;SDS011;11994;51.038;16.974;2023-04-01T02:38:42;7.40;;;2.70;;
23634;SDS011;11994;51.038;16.974;2023-04-01T02:41:10;5.70;;;2.70;;
23634;SDS011;11994;51.038;16.974;2023-04-01T02:43:36;9.70;;;3.30;;
23634;SDS011;11994;51.038;16.974;2023-04-01T02:46:02;5.30;;;3.40;;
23634;SDS011;11994;51.038;16.974;2023-04-01T02:48:28;5.80;;;3.50;;
23634;SDS011;11994;51.038;16.974;2023-04-01T02:50:53;6.80;;;3.90;;
23634;SDS011;11994;51.038;16.974;2023-04-01T02:53:19;5.30;;;3.40;;
23634;SDS011;11994;51.038;16.974;2023-04-01T02:55:44;6.00;;;3.30;;
23634;SDS011;11994;51.038;16.974;2023-04-01T02:58:10;5.80;;;3.00;;
23634;SDS011;11994;51.038;16.974;2023-04-01T03:00:36;6.60;;;3.30;;
23634;SDS011;11994;51.038;16.974;2023-04-01T03:03:02;4.90;;;3.20;;
23634;SDS011;11994;51.038;16.974;2023-04-01T03:05:28;7.60;;;4.00;;
23634;SDS011;11994;51.038;16.974;2023-04-01T03:07:53;6.30;;;3.30;;
23634;SDS011;11994;51.038;16.974;2023-04-01T03:10:19;7.40;;;3.30;;
23634;SDS011;11994;51.038;16.974;2023-04-01T03:12:45;5.60;;;3.20;;
23634;SDS011;11994;51.038;16.974;2023-04-01T03:15:11;6.20;;;3.00;;
23634;SDS011;11994;51.038;16.974;2023-04-01T03:17:39;5.80;;;3.40;;
23634;SDS011;11994;51.038;16.974;2023-04-01T03:20:05;8.70;;;4.80;;
23634;SDS011;11994;51.038;16.974;2023-04-01T03:22:33;8.20;;;4.70;;
23634;SDS011;11994;51.038;16.974;2023-04-01T03:24:59;5.30;;;3.60;;
23634;SDS011;11994;51.038;16.974;2023-04-01T03:27:24;6.00;;;2.90;;
23634;SDS011;11994;51.038;16.974;2023-04-01T03:29:49;4.70;;;2.80;;
23634;SDS011;11994;51.038;16.974;2023-04-01T03:32:15;5.30;;;3.50;;
23634;SDS011;11994;51.038;16.974;2023-04-01T03:34:40;6.10;;;3.70;;
23634;SDS011;11994;51.038;16.974;2023-04-01T03:37:06;6.20;;;3.90;;
23634;SDS011;11994;51.038;16.974;2023-04-01T03:39:31;6.10;;;3.70;;
23634;SDS011;11994;51.038;16.974;2023-04-01T03:41:57;5.40;;;3.00;;
23634;SDS011;11994;51.038;16.974;2023-04-01T03:44:22;6.00;;;3.10;;
23634;SDS011;11994;51.038;16.974;2023-04-01T03:46:47;5.80;;;3.30;;
23634;SDS011;11994;51.038;16.974;2023-04-01T03:49:13;7.20;;;3.50;;
23634;SDS011;11994;51.038;16.974;2023-04-01T03:51:39;8.00;;;3.60;;
23634;SDS011;11994;51.038;16.974;2023-04-01T03:54:06;5.50;;;2.90;;
23634;SDS011;11994;51.038;16.974;2023-04-01T03:56:31;6.70;;;3.00;;
23634;SDS011;11994;51.038;16.974;2023-04-01T03:58:57;5.40;;;3.50;;
23634;SDS011;11994;51.038;16.974;2023-04-01T04:01:22;6.10;;;3.30;;
23634;SDS011;11994;51.038;16.974;2023-04-01T04:03:48;7.70;;;4.00;;
23634;SDS011;11994;51.038;16.974;2023-04-01T04:06:15;4.50;;;3.30;;
23634;SDS011;11994;51.038;16.974;2023-04-01T04:08:42;6.80;;;3.10;;
23634;SDS011;11994;51.038;16.974;2023-04-01T04:11:08;7.40;;;3.10;;
23634;SDS011;11994;51.038;16.974;2023-04-01T04:13:33;5.80;;;2.40;;
23634;SDS011;11994;51.038;16.974;2023-04-01T04:16:00;5.00;;;2.70;;
23634;SDS011;11994;51.038;16.974;2023-04-01T04:18:26;4.30;;;2.20;;
23634;SDS011;11994;51.038;16.974;2023-04-01T04:20:52;5.20;;;2.60;;
23634;SDS011;11994;51.038;16.974;2023-04-01T04:23:17;2.60;;;1.80;;
23634;SDS011;11994;51.038;16.974;2023-04-01T04:25:56;3.10;;;2.00;;
23634;SDS011;11994;51.038;16.974;2023-04-01T04:28:23;4.20;;;2.00;;
23634;SDS011;11994;51.038;16.974;2023-04-01T04:30:49;2.90;;;1.60;;
23634;SDS011;11994;51.038;16.974;2023-04-01T04:33:15;3.80;;;2.00;;
23634;SDS011;11994;51.038;16.974;2023-04-01T04:35:40;5.30;;;1.90;;
23634;SDS011;11994;51.038;16.974;2023-04-01T04:38:05;4.20;;;2.20;;
23634;SDS011;11994;51.038;16.974;2023-04-01T04:40:31;5.30;;;2.10;;
23634;SDS011;11994;51.038;16.974;2023-04-01T04:42:56;5.00;;;2.20;;
23634;SDS011;11994;51.038;16.974;2023-04-01T04:45:21;4.90;;;2.30;;
23634;SDS011;11994;51.038;16.974;2023-04-01T04:47:47;4.50;;;2.30;;
23634;SDS011;11994;51.038;16.974;2023-04-01T04:50:12;5.90;;;2.00;;
23634;SDS011;11994;51.038;16.974;2023-04-01T04:52:38;5.40;;;3.00;;
23634;SDS011;11994;51.038;16.974;2023-04-01T04:55:03;7.00;;;3.70;;
23634;SDS011;11994;51.038;16.974;2023-04-01T04:57:29;4.30;;;2.60;;
23634;SDS011;11994;51.038;16.974;2023-04-01T04:59:54;4.20;;;2.80;;
23634;SDS011;11994;51.038;16.974;2023-04-01T05:02:20;5.10;;;3.10;;
23634;SDS011;11994;51.038;16.974;2023-04-01T05:04:45;6.80;;;3.30;;
23634;SDS011;11994;51.038;16.974;2023-04-01T05:07:10;5.40;;;3.30;;
23634;SDS011;11994;51.038;16.974;2023-04-01T05:09:36;5.60;;;3.50;;
23634;SDS011;11994;51.038;16.974;2023-04-01T05:12:01;8.00;;;4.30;;
23634;SDS011;11994;51.038;16.974;2023-04-01T05:14:27;7.00;;;4.40;;
23634;SDS011;11994;51.038;16.974;2023-04-01T05:16:52;6.50;;;3.80;;
23634;SDS011;11994;51.038;16.974;2023-04-01T05:19:19;5.40;;;3.80;;
23634;SDS011;11994;51.038;16.974;2023-04-01T05:21:45;5.40;;;3.60;;
23634;SDS011;11994;51.038;16.974;2023-04-01T05:24:10;6.10;;;4.00;;
23634;SDS011;11994;51.038;16.974;2023-04-01T05:26:35;6.70;;;3.90;;
23634;SDS011;11994;51.038;16.974;2023-04-01T05:29:02;9.10;;;4.10;;
23634;SDS011;11994;51.038;16.974;2023-04-01T05:31:29;7.00;;;3.60;;
23634;SDS011;11994;51.038;16.974;2023-04-01T05:33:54;5.60;;;3.30;;
23634;SDS011;11994;51.038;16.974;2023-04-01T05:36:20;6.70;;;3.70;;
23634;SDS011;11994;51.038;16.974;2023-04-01T05:38:45;6.80;;;4.00;;
23634;SDS011;11994;51.038;16.974;2023-04-01T05:41:12;5.50;;;3.80;;
23634;SDS011;11994;51.038;16.974;2023-04-01T05:43:37;5.20;;;3.40;;
23634;SDS011;11994;51.038;16.974;2023-04-01T05:46:04;5.50;;;3.50;;
23634;SDS011;11994;51.038;16.974;2023-04-01T05:48:29;6.40;;;3.40;;
23634;SDS011;11994;51.038;16.974;2023-04-01T05:50:55;5.60;;;3.30;;
23634;SDS011;11994;51.038;16.974;2023-04-01T05:53:20;5.00;;;2.90;;
23634;SDS011;11994;51.038;16.974;2023-04-01T05:55:45;6.70;;;4.10;;
23634;SDS011;11994;51.038;16.974;2023-04-01T05:58:11;6.60;;;4.20;;
23634;SDS011;11994;51.038;16.974;2023-04-01T06:00:38;6.00;;;3.70;;
23634;SDS011;11994;51.038;16.974;2023-04-01T06:03:03;8.60;;;5.50;;
23634;SDS011;11994;51.038;16.974;2023-04-01T06:05:29;12.50;;;5.90;;
23634;SDS011;11994;51.038;16.974;2023-04-01T06:08:05;10.90;;;5.90;;
23634;SDS011;11994;51.038;16.974;2023-04-01T06:29:44;9.10;;;6.40;;
23634;SDS011;11994;51.038;16.974;2023-04-01T06:50:58;4.80;;;2.10;;
23634;SDS011;11994;51.038;16.974;2023-04-01T06:56:10;3.20;;;1.80;;
23634;SDS011;11994;51.038;16.974;2023-04-01T06:58:50;5.00;;;2.10;;
23634;SDS011;11994;51.038;16.974;2023-04-01T07:01:24;4.40;;;2.10;;
23634;SDS011;11994;51.038;16.974;2023-04-01T07:04:14;4.00;;;2.00;;
23634;SDS011;11994;51.038;16.974;2023-04-01T07:06:52;4.80;;;2.20;;
23634;SDS011;11994;51.038;16.974;2023-04-01T07:09:24;5.70;;;3.10;;
23634;SDS011;11994;51.038;16.974;2023-04-01T07:11:53;5.00;;;1.90;;
23634;SDS011;11994;51.038;16.974;2023-04-01T07:14:27;7.20;;;3.40;;
23634;SDS011;11994;51.038;16.974;2023-04-01T07:17:00;5.70;;;2.00;;
23634;SDS011;11994;51.038;16.974;2023-04-01T07:25:03;3.40;;;1.50;;
23634;SDS011;11994;51.038;16.974;2023-04-01T07:27:36;3.70;;;1.60;;
23634;SDS011;11994;51.038;16.974;2023-04-01T07:30:03;5.90;;;1.80;;
23634;SDS011;11994;51.038;16.974;2023-04-01T07:40:32;4.40;;;1.70;;
23634;SDS011;11994;51.038;16.974;2023-04-01T07:49:08;6.30;;;1.80;;
23634;SDS011;11994;51.038;16.974;2023-04-01T07:54:25;6.60;;;1.70;;
23634;SDS011;11994;51.038;16.974;2023-04-01T07:59:45;8.30;;;2.00;;
23634;SDS011;11994;51.038;16.974;2023-04-01T08:05:25;6.30;;;1.70;;
23634;SDS011;11994;51.038;16.974;2023-04-01T08:08:05;4.90;;;1.80;;
23634;SDS011;11994;51.038;16.974;2023-04-01T08:21:52;4.20;;;1.70;;
23634;SDS011;11994;51.038;16.974;2023-04-01T08:27:01;6.20;;;2.20;;
23634;SDS011;11994;51.038;16.974;2023-04-01T08:32:32;3.90;;;1.80;;
23634;SDS011;11994;51.038;16.974;2023-04-01T08:35:16;6.00;;;2.20;;
23634;SDS011;11994;51.038;16.974;2023-04-01T08:37:49;3.60;;;1.90;;
23634;SDS011;11994;51.038;16.974;2023-04-01T08:40:25;5.10;;;2.00;;
23634;SDS011;11994;51.038;16.974;2023-04-01T08:56:46;6.30;;;2.30;;
23634;SDS011;11994;51.038;16.974;2023-04-01T09:13:25;4.40;;;1.70;;
23634;SDS011;11994;51.038;16.974;2023-04-01T09:18:53;3.60;;;1.80;;
23634;SDS011;11994;51.038;16.974;2023-04-01T09:21:32;4.50;;;1.90;;
23634;SDS011;11994;51.038;16.974;2023-04-01T09:37:52;4.40;;;2.10;;
23634;SDS011;11994;51.038;16.974;2023-04-01T09:51:30;5.00;;;2.00;;
23634;SDS011;11994;51.038;16.974;2023-04-01T10:00:17;5.10;;;1.60;;
23634;SDS011;11994;51.038;16.974;2023-04-01T10:23:20;4.00;;;2.00;;
23634;SDS011;11994;51.038;16.974;2023-04-01T10:34:12;3.70;;;2.20;;
23634;SDS011;11994;51.038;16.974;2023-04-01T10:36:55;4.10;;;2.40;;
23634;SDS011;11994;51.038;16.974;2023-04-01T10:42:04;4.00;;;1.80;;
23634;SDS011;11994;51.038;16.974;2023-04-01T10:47:54;3.20;;;1.60;;
23634;SDS011;11994;51.038;16.974;2023-04-01T10:50:24;3.80;;;1.40;;
23634;SDS011;11994;51.038;16.974;2023-04-01T10:58:21;6.70;;;3.00;;
23634;SDS011;11994;51.038;16.974;2023-04-01T11:09:58;6.10;;;2.50;;
23634;SDS011;11994;51.038;16.974;2023-04-01T11:12:15;5.10;;;2.40;;
23634;SDS011;11994;51.038;16.974;2023-04-01T11:15:01;3.60;;;2.10;;
23634;SDS011;11994;51.038;16.974;2023-04-01T11:31:45;3.90;;;1.80;;
23634;SDS011;11994;51.038;16.974;2023-04-01T11:48:44;6.60;;;3.10;;
23634;SDS011;11994;51.038;16.974;2023-04-01T11:54:37;5.00;;;3.00;;
23634;SDS011;11994;51.038;16.974;2023-04-01T11:57:31;3.40;;;2.20;;
23634;SDS011;11994;51.038;16.974;2023-04-01T12:00:14;4.60;;;2.60;;
23634;SDS011;11994;51.038;16.974;2023-04-01T12:08:44;3.30;;;1.50;;
23634;SDS011;11994;51.038;16.974;2023-04-01T12:11:25;4.00;;;1.70;;
23634;SDS011;11994;51.038;16.974;2023-04-01T12:14:14;3.40;;;1.40;;
23634;SDS011;11994;51.038;16.974;2023-04-01T12:16:55;5.30;;;2.00;;
23634;SDS011;11994;51.038;16.974;2023-04-01T12:30:43;2.50;;;1.40;;
23634;SDS011;11994;51.038;16.974;2023-04-01T12:44:55;2.40;;;0.90;;
23634;SDS011;11994;51.038;16.974;2023-04-01T12:47:33;3.20;;;2.10;;
23634;SDS011;11994;51.038;16.974;2023-04-01T12:53:32;5.80;;;2.50;;
23634;SDS011;11994;51.038;16.974;2023-04-01T12:56:03;14.40;;;4.90;;
23634;SDS011;11994;51.038;16.974;2023-04-01T13:44:37;4.80;;;2.00;;
23634;SDS011;11994;51.038;16.974;2023-04-01T13:50:01;4.00;;;1.90;;
23634;SDS011;11994;51.038;16.974;2023-04-01T13:55:53;8.20;;;3.50;;
23634;SDS011;11994;51.038;16.974;2023-04-01T14:31:41;5.70;;;3.00;;
23634;SDS011;11994;51.038;16.974;2023-04-01T14:40:19;4.50;;;2.20;;
23634;SDS011;11994;51.038;16.974;2023-04-01T14:51:14;8.70;;;4.30;;
23634;SDS011;11994;51.038;16.974;2023-04-01T14:54:30;8.00;;;4.70;;
23634;SDS011;11994;51.038;16.974;2023-04-01T14:56:48;10.60;;;5.70;;
23634;SDS011;11994;51.038;16.974;2023-04-01T14:59:32;10.10;;;5.30;;
23634;SDS011;11994;51.038;16.974;2023-04-01T15:02:22;7.50;;;4.80;;
23634;SDS011;11994;51.038;16.974;2023-04-01T15:19:43;6.50;;;2.40;;
23634;SDS011;11994;51.038;16.974;2023-04-01T15:29:59;4.10;;;2.60;;
23634;SDS011;11994;51.038;16.974;2023-04-01T15:35:49;5.40;;;3.80;;
23634;SDS011;11994;51.038;16.974;2023-04-01T15:43:44;7.00;;;3.60;;
23634;SDS011;11994;51.038;16.974;2023-04-01T15:49:20;4.90;;;2.80;;
23634;SDS011;11994;51.038;16.974;2023-04-01T15:57:42;4.00;;;2.30;;
23634;SDS011;11994;51.038;16.974;2023-04-01T16:00:31;4.20;;;2.80;;
23634;SDS011;11994;51.038;16.974;2023-04-01T16:06:08;6.10;;;3.40;;
23634;SDS011;11994;51.038;16.974;2023-04-01T16:14:28;4.30;;;3.40;;
23634;SDS011;11994;51.038;16.974;2023-04-01T16:17:20;6.40;;;3.70;;
23634;SDS011;11994;51.038;16.974;2023-04-01T16:31:23;5.50;;;3.70;;
23634;SDS011;11994;51.038;16.974;2023-04-01T16:41:38;6.00;;;4.50;;
23634;SDS011;11994;51.038;16.974;2023-04-01T16:46:41;9.70;;;4.20;;
23634;SDS011;11994;51.038;16.974;2023-04-01T16:51:40;7.30;;;4.40;;
23634;SDS011;11994;51.038;16.974;2023-04-01T16:54:26;5.80;;;3.90;;
23634;SDS011;11994;51.038;16.974;2023-04-01T17:04:40;5.20;;;4.30;;
23634;SDS011;11994;51.038;16.974;2023-04-01T17:07:24;5.80;;;4.30;;
23634;SDS011;11994;51.038;16.974;2023-04-01T17:10:29;5.50;;;4.20;;
23634;SDS011;11994;51.038;16.974;2023-04-01T17:20:50;6.90;;;6.00;;
23634;SDS011;11994;51.038;16.974;2023-04-01T17:26:07;10.00;;;7.10;;
23634;SDS011;11994;51.038;16.974;2023-04-01T17:28:56;8.40;;;6.90;;
23634;SDS011;11994;51.038;16.974;2023-04-01T17:42:14;14.20;;;9.70;;
23634;SDS011;11994;51.038;16.974;2023-04-01T17:45:00;12.00;;;9.00;;
23634;SDS011;11994;51.038;16.974;2023-04-01T17:48:01;13.00;;;10.10;;
23634;SDS011;11994;51.038;16.974;2023-04-01T17:56:33;15.30;;;12.10;;
23634;SDS011;11994;51.038;16.974;2023-04-01T17:59:44;14.00;;;9.90;;
23634;SDS011;11994;51.038;16.974;2023-04-01T18:02:31;15.30;;;11.70;;
23634;SDS011;11994;51.038;16.974;2023-04-01T18:05:17;12.50;;;10.40;;
23634;SDS011;11994;51.038;16.974;2023-04-01T18:08:23;16.50;;;10.90;;
23634;SDS011;11994;51.038;16.974;2023-04-01T18:16:11;14.30;;;10.20;;
23634;SDS011;11994;51.038;16.974;2023-04-01T18:18:46;12.30;;;11.00;;
23634;SDS011;11994;51.038;16.974;2023-04-01T18:23:51;15.80;;;12.40;;
23634;SDS011;11994;51.038;16.974;2023-04-01T18:31:43;36.70;;;25.20;;
23634;SDS011;11994;51.038;16.974;2023-04-01T18:37:31;20.20;;;16.40;;
23634;SDS011;11994;51.038;16.974;2023-04-01T18:40:15;20.40;;;16.20;;
23634;SDS011;11994;51.038;16.974;2023-04-01T18:42:57;19.70;;;17.40;;
23634;SDS011;11994;51.038;16.974;2023-04-01T18:48:43;17.50;;;15.10;;
23634;SDS011;11994;51.038;16.974;2023-04-01T18:51:25;20.20;;;17.10;;
23634;SDS011;11994;51.038;16.974;2023-04-01T18:54:05;21.60;;;19.20;;
23634;SDS011;11994;51.038;16.974;2023-04-01T18:56:38;24.90;;;20.10;;
23634;SDS011;11994;51.038;16.974;2023-04-01T18:59:21;24.90;;;19.70;;
23634;SDS011;11994;51.038;16.974;2023-04-01T19:01:57;23.80;;;18.80;;
23634;SDS011;11994;51.038;16.974;2023-04-01T19:09:52;23.90;;;20.50;;
23634;SDS011;11994;51.038;16.974;2023-04-01T19:12:24;25.10;;;21.50;;
23634;SDS011;11994;51.038;16.974;2023-04-01T19:18:08;23.80;;;19.90;;
23634;SDS011;11994;51.038;16.974;2023-04-01T19:20:25;24.50;;;19.20;;
23634;SDS011;11994;51.038;16.974;2023-04-01T19:28:21;25.30;;;21.40;;
23634;SDS011;11994;51.038;16.974;2023-04-01T19:30:59;28.40;;;22.20;;
23634;SDS011;11994;51.038;16.974;2023-04-01T19:36:31;23.30;;;18.70;;
23634;SDS011;11994;51.038;16.974;2023-04-01T19:41:56;24.80;;;19.50;;
23634;SDS011;11994;51.038;16.974;2023-04-01T19:47:18;24.10;;;20.30;;
23634;SDS011;11994;51.038;16.974;2023-04-01T19:50:04;24.60;;;19.70;;
23634;SDS011;11994;51.038;16.974;2023-04-01T19:52:44;21.50;;;18.20;;
23634;SDS011;11994;51.038;16.974;2023-04-01T19:58:22;24.70;;;19.20;;
23634;SDS011;11994;51.038;16.974;2023-04-01T20:11:56;24.00;;;20.00;;
23634;SDS011;11994;51.038;16.974;2023-04-01T20:17:17;27.30;;;22.00;;
23634;SDS011;11994;51.038;16.974;2023-04-01T20:31:02;27.10;;;23.40;;
23634;SDS011;11994;51.038;16.974;2023-04-01T20:44:43;29.20;;;24.20;;
23634;SDS011;11994;51.038;16.974;2023-04-01T20:50:29;29.60;;;24.80;;
23634;SDS011;11994;51.038;16.974;2023-04-01T20:53:16;29.40;;;23.50;;
23634;SDS011;11994;51.038;16.974;2023-04-01T21:09:42;24.60;;;20.50;;
23634;SDS011;11994;51.038;16.974;2023-04-01T21:29:27;27.60;;;23.50;;
23634;SDS011;11994;51.038;16.974;2023-04-01T21:32:08;29.60;;;24.60;;
23634;SDS011;11994;51.038;16.974;2023-04-01T21:34:52;28.70;;;25.40;;
23634;SDS011;11994;51.038;16.974;2023-04-01T21:37:31;30.70;;;24.90;;
23634;SDS011;11994;51.038;16.974;2023-04-01T21:43:22;30.70;;;24.40;;
23634;SDS011;11994;51.038;16.974;2023-04-01T22:00:48;31.00;;;25.80;;
23634;SDS011;11994;51.038;16.974;2023-04-01T22:03:27;31.40;;;26.20;;
23634;SDS011;11994;51.038;16.974;2023-04-01T22:09:26;28.90;;;23.50;;
23634;SDS011;11994;51.038;16.974;2023-04-01T22:23:02;27.20;;;21.30;;
23634;SDS011;11994;51.038;16.974;2023-04-01T22:28:38;30.50;;;24.30;;
23634;SDS011;11994;51.038;16.974;2023-04-01T22:31:19;30.70;;;25.90;;
23634;SDS011;11994;51.038;16.974;2023-04-01T22:44:55;31.20;;;26.10;;
23634;SDS011;11994;51.038;16.974;2023-04-01T22:50:30;30.60;;;21.60;;
23634;SDS011;11994;51.038;16.974;2023-04-01T22:56:20;26.00;;;22.40;;
23634;SDS011;11994;51.038;16.974;2023-04-01T22:58:52;28.00;;;24.20;;
23634;SDS011;11994;51.038;16.974;2023-04-01T23:01:24;26.70;;;23.70;;
23634;SDS011;11994;51.038;16.974;2023-04-01T23:03:54;25.30;;;21.90;;
23634;SDS011;11994;51.038;16.974;2023-04-01T23:06:25;21.80;;;19.50;;
23634;SDS011;11994;51.038;16.974;2023-04-01T23:11:33;24.80;;;21.40;;
23634;SDS011;11994;51.038;16.974;2023-04-01T23:22:43;22.30;;;17.40;;
23634;SDS011;11994;51.038;16.974;2023-04-01T23:25:24;21.00;;;18.30;;
23634;SDS011;11994;51.038;16.974;2023-04-01T23:35:53;19.60;;;17.00;;
23634;SDS011;11994;51.038;16.974;2023-04-01T23:38:20;18.40;;;15.30;;
23634;SDS011;11994;51.038;16.974;2023-04-01T23:40:48;18.80;;;15.30;;
23634;SDS011;11994;51.038;16.974;2023-04-01T23:43:32;17.50;;;15.70;;
23634;SDS011;11994;51.038;16.974;2023-04-01T23:46:03;20.40;;;16.90;;
23634;SDS011;11994;51.038;16.974;2023-04-01T23:48:42;16.90;;;15.10;;
23634;SDS011;11994;51.038;16.974;2023-04-01T23:51:12;14.90;;;13.30;;
23634;SDS011;11994;51.038;16.974;2023-04-01T23:53:43;13.60;;;12.20;;
23634;SDS011;11994;51.038;16.974;2023-04-01T23:56:10;14.50;;;12.00;;
23634;SDS011;11994;51.038;16.974;2023-04-01T23:58:49;14.90;;;13.30;;
